Time;durP1;ratioP1;P1;durP2;ratioP2;P2;SDS_P1;SDS_P2;PMS_P1;PMS_P2;Temp;Humidity;BMP_temperature;BMP_pressure;BME280_temperature;BME280_humidity;BME280_pressure;Samples;Min_cycle;Max_cycle;Signal;HPM_P1;HPM_P2
2022/03/04 00:01:47;;;;;;;;;;;6.50;99.90;;;;;;5075745;28;19909;-71
2022/03/04 00:04:13;;;;;;;;;;;6.60;99.90;;;;;;5075412;28;19908;-70
2022/03/04 00:06:38;;;;;;;;;;;6.60;99.90;;;;;;5075333;28;19919;-71
2022/03/04 00:09:04;;;;;;;;;;;6.60;99.90;;;;;;5075448;28;20278;-70
2022/03/04 00:11:30;;;;;;;;;;;6.50;99.90;;;;;;5075371;28;19981;-70
2022/03/04 00:13:55;;;;;;;;;;;6.60;99.90;;;;;;5075283;28;19913;-68
2022/03/04 00:16:21;;;;;;;;;;;6.70;99.90;;;;;;5075146;28;19995;-70
2022/03/04 00:19:06;;;;;;;;;;;6.50;99.90;;;;;;5074511;28;19948;-70
2022/03/04 00:21:41;;;;;;;;;;;6.30;99.90;;;;;;5075331;28;19914;-72
2022/03/04 00:24:08;;;;;;;;;;;6.40;99.90;;;;;;5075104;28;20394;-71
2022/03/04 00:26:34;;;;;;;;;;;6.60;99.90;;;;;;5075037;28;19908;-70
2022/03/04 00:28:59;;;;;;;;;;;6.60;99.90;;;;;;5075133;28;20425;-70
2022/03/04 00:31:25;;;;;;;;;;;6.50;99.90;;;;;;5074167;28;20362;-68
2022/03/04 00:33:51;;;;;;;;;;;6.50;99.90;;;;;;5074983;28;20387;-71
2022/03/04 00:36:17;;;;;;;;;;;6.50;99.90;;;;;;5073593;28;19908;-68
2022/03/04 00:38:42;;;;;;;;;;;6.50;99.90;;;;;;5074899;28;20390;-71
2022/03/04 00:41:08;;;;;;;;;;;6.50;99.90;;;;;;5074827;28;19909;-71
2022/03/04 00:43:34;;;;;;;;;;;6.40;99.90;;;;;;5074610;28;20267;-71
2022/03/04 00:45:59;;;;;;;;;;;6.30;99.90;;;;;;5074465;28;20378;-71
2022/03/04 00:48:25;;;;;;;;;;;6.30;99.90;;;;;;5073551;28;19916;-69
2022/03/04 00:50:51;;;;;;;;;;;6.20;99.90;;;;;;5066172;28;19917;-68
2022/03/04 00:53:17;;;;;;;;;;;6.20;99.90;;;;;;5052459;28;19916;-71
2022/03/04 00:55:43;;;;;;;;;;;6.30;99.90;;;;;;5052664;28;20486;-72
2022/03/04 00:58:08;;;;;;;;;;;6.30;99.90;;;;;;5053258;28;19987;-71
2022/03/04 01:00:35;;;;;;;;;;;6.40;99.90;;;;;;5054503;28;19913;-71
2022/03/04 01:03:01;;;;;;;;;;;6.50;99.90;;;;;;5054480;28;19913;-71
2022/03/04 01:05:26;;;;;;;;;;;6.40;99.90;;;;;;5054409;28;20348;-70
2022/03/04 01:07:52;;;;;;;;;;;6.40;99.90;;;;;;5060519;28;19940;-70
2022/03/04 01:10:17;;;;;;;;;;;6.60;99.90;;;;;;5073024;28;19998;-71
2022/03/04 01:12:43;;;;;;;;;;;6.60;99.90;;;;;;5074107;28;20280;-71
2022/03/04 01:15:09;;;;;;;;;;;6.50;99.90;;;;;;5074027;28;20286;-71
2022/03/04 01:17:35;;;;;;;;;;;6.60;99.90;;;;;;5074170;28;20367;-70
2022/03/04 01:20:01;;;;;;;;;;;6.60;99.90;;;;;;5074092;28;20350;-71
2022/03/04 01:22:26;;;;;;;;;;;6.50;99.90;;;;;;5074141;28;19923;-70
2022/03/04 01:24:53;;;;;;;;;;;6.70;99.90;;;;;;5074039;28;19908;-71
2022/03/04 01:27:19;;;;;;;;;;;6.60;99.90;;;;;;5072566;28;20010;-68
2022/03/04 01:29:45;;;;;;;;;;;6.60;99.90;;;;;;5073609;28;20003;-70
2022/03/04 01:32:11;;;;;;;;;;;6.60;99.90;;;;;;5072345;28;19912;-71
2022/03/04 01:34:37;;;;;;;;;;;6.40;99.90;;;;;;5073889;28;19917;-71
2022/03/04 01:37:02;;;;;;;;;;;6.40;99.90;;;;;;5073913;28;19912;-71
2022/03/04 01:39:28;;;;;;;;;;;6.30;99.90;;;;;;5073794;28;20352;-69
2022/03/04 01:41:54;;;;;;;;;;;6.30;99.90;;;;;;5073873;28;19915;-71
2022/03/04 01:44:19;;;;;;;;;;;6.30;99.90;;;;;;5073653;28;20249;-71
2022/03/04 01:46:45;;;;;;;;;;;6.30;99.90;;;;;;5073745;28;19919;-72
2022/03/04 01:49:11;;;;;;;;;;;6.20;99.90;;;;;;5073395;28;19961;-71
2022/03/04 01:51:37;;;;;;;;;;;6.30;99.90;;;;;;5073317;28;19985;-72
2022/03/04 01:54:02;;;;;;;;;;;6.30;99.90;;;;;;5072386;28;19912;-68
2022/03/04 01:56:28;;;;;;;;;;;6.30;99.90;;;;;;5073689;28;19908;-72
2022/03/04 01:58:54;;;;;;;;;;;6.40;99.90;;;;;;5073697;28;19908;-71
2022/03/04 02:01:20;;;;;;;;;;;6.40;99.90;;;;;;5073726;28;19987;-71
2022/03/04 02:03:45;;;;;;;;;;;6.40;99.90;;;;;;5073301;28;19908;-71
2022/03/04 02:06:11;;;;;;;;;;;6.40;99.90;;;;;;5072904;28;19908;-69
2022/03/04 02:08:36;;;;;;;;;;;6.40;99.90;;;;;;5073535;28;19912;-70
2022/03/04 02:11:02;;;;;;;;;;;6.50;99.90;;;;;;5073568;28;19948;-71
2022/03/04 02:13:28;;;;;;;;;;;6.50;99.90;;;;;;5073451;28;19920;-70
2022/03/04 02:15:53;;;;;;;;;;;6.70;99.90;;;;;;5073450;28;19952;-70
2022/03/04 02:18:19;;;;;;;;;;;6.70;99.90;;;;;;5073384;28;19951;-71
2022/03/04 02:20:46;;;;;;;;;;;6.80;99.90;;;;;;5073396;28;20363;-70
2022/03/04 02:23:12;;;;;;;;;;;6.90;99.90;;;;;;5072942;28;19969;-71
2022/03/04 02:25:39;;;;;;;;;;;6.80;99.90;;;;;;5060792;28;19912;-69
2022/03/04 02:28:05;;;;;;;;;;;6.80;99.90;;;;;;5053381;28;19982;-67
2022/03/04 02:30:30;;;;;;;;;;;6.80;99.90;;;;;;5053333;28;19913;-68
2022/03/04 02:32:56;;;;;;;;;;;6.90;99.90;;;;;;5052927;28;20325;-69
2022/03/04 02:35:21;;;;;;;;;;;6.80;99.90;;;;;;5052806;28;19909;-71
2022/03/04 02:37:47;;;;;;;;;;;6.80;99.90;;;;;;5052804;28;20299;-71
2022/03/04 02:40:14;;;;;;;;;;;6.80;99.90;;;;;;5068538;28;19943;-70
2022/03/04 02:42:39;;;;;;;;;;;6.80;99.90;;;;;;5072910;28;19908;-70
2022/03/04 02:45:05;;;;;;;;;;;6.90;99.90;;;;;;5072935;28;19909;-68
2022/03/04 02:47:31;;;;;;;;;;;6.90;99.90;;;;;;5088428;28;20007;-71
2022/03/04 02:49:56;;;;;;;;;;;6.90;99.90;;;;;;5072802;28;19908;-71
2022/03/04 02:52:22;;;;;;;;;;;6.90;99.90;;;;;;5071159;28;19923;-71
2022/03/04 02:54:47;;;;;;;;;;;6.80;99.90;;;;;;5053527;28;19916;-71
2022/03/04 02:57:13;;;;;;;;;;;6.80;99.90;;;;;;5072188;28;20280;-71
2022/03/04 02:59:38;;;;;;;;;;;6.90;99.90;;;;;;5056552;28;19999;-71
2022/03/04 03:02:04;;;;;;;;;;;6.80;99.90;;;;;;5056421;28;19913;-69
2022/03/04 03:04:30;;;;;;;;;;;6.90;99.90;;;;;;5056884;28;19909;-68
2022/03/04 03:06:57;;;;;;;;;;;6.90;99.90;;;;;;5072321;28;19916;-68
2022/03/04 03:09:23;;;;;;;;;;;6.80;99.90;;;;;;5056764;28;19912;-71
2022/03/04 03:11:49;;;;;;;;;;;6.80;99.90;;;;;;5056580;28;20072;-70
2022/03/04 03:14:14;;;;;;;;;;;6.90;99.90;;;;;;5076378;28;19916;-71
2022/03/04 03:16:40;;;;;;;;;;;7.00;99.90;;;;;;5075044;28;19919;-69
2022/03/04 03:19:08;;;;;;;;;;;6.90;99.90;;;;;;5075174;28;19939;-68
2022/03/04 03:21:33;;;;;;;;;;;6.80;99.90;;;;;;5076389;28;19908;-69
2022/03/04 03:23:59;;;;;;;;;;;6.80;99.90;;;;;;5076377;28;19912;-72
2022/03/04 03:26:25;;;;;;;;;;;6.80;99.90;;;;;;5076325;28;20287;-71
2022/03/04 03:28:50;;;;;;;;;;;6.70;99.90;;;;;;5076026;28;19942;-68
2022/03/04 03:31:16;;;;;;;;;;;6.70;99.90;;;;;;5075912;28;19915;-69
2022/03/04 03:33:43;;;;;;;;;;;6.70;99.90;;;;;;5075964;28;19916;-70
2022/03/04 03:36:08;;;;;;;;;;;6.60;99.90;;;;;;5075929;28;20003;-71
2022/03/04 03:38:34;;;;;;;;;;;6.70;99.90;;;;;;5076049;28;20335;-68
2022/03/04 03:41:00;;;;;;;;;;;6.70;99.90;;;;;;5074598;28;19909;-70
2022/03/04 03:43:25;;;;;;;;;;;6.70;99.90;;;;;;5075947;28;19913;-70
2022/03/04 03:45:51;;;;;;;;;;;6.80;99.90;;;;;;5075791;28;19943;-72
2022/03/04 03:48:17;;;;;;;;;;;6.70;99.90;;;;;;5075880;28;19908;-70
2022/03/04 03:50:42;;;;;;;;;;;6.60;99.90;;;;;;5075716;28;19915;-70
2022/03/04 03:53:09;;;;;;;;;;;7.00;99.90;;;;;;5075835;28;19917;-70
2022/03/04 03:55:35;;;;;;;;;;;7.00;99.90;;;;;;5075929;28;19909;-71
2022/03/04 03:58:00;;;;;;;;;;;6.90;99.90;;;;;;5075670;28;20734;-68
2022/03/04 04:00:26;;;;;;;;;;;7.00;99.90;;;;;;5075404;28;19995;-70
2022/03/04 04:02:52;;;;;;;;;;;6.90;99.90;;;;;;5075600;28;19911;-71
2022/03/04 04:05:18;;;;;;;;;;;6.90;99.90;;;;;;5075611;28;19908;-70
2022/03/04 04:07:44;;;;;;;;;;;6.90;99.90;;;;;;5075589;28;19912;-70
2022/03/04 04:10:09;;;;;;;;;;;6.90;99.90;;;;;;5075021;28;20022;-69
2022/03/04 04:12:35;;;;;;;;;;;6.80;99.90;;;;;;5075409;28;20367;-71
2022/03/04 04:15:01;;;;;;;;;;;6.70;99.90;;;;;;5075399;28;19944;-69
2022/03/04 04:17:27;;;;;;;;;;;6.90;99.90;;;;;;5075668;28;19916;-71
2022/03/04 04:19:53;;;;;;;;;;;6.90;99.90;;;;;;5075485;28;19912;-68
2022/03/04 04:22:19;;;;;;;;;;;6.90;99.90;;;;;;5075281;28;19991;-69
2022/03/04 04:24:44;;;;;;;;;;;6.80;99.90;;;;;;5075254;28;20008;-71
2022/03/04 04:27:10;;;;;;;;;;;6.80;99.90;;;;;;5075082;28;20394;-70
2022/03/04 04:29:36;;;;;;;;;;;6.70;99.90;;;;;;5075119;28;19908;-71
2022/03/04 04:32:02;;;;;;;;;;;6.70;99.90;;;;;;5075343;28;19913;-71
2022/03/04 04:34:27;;;;;;;;;;;6.70;99.90;;;;;;5074854;28;19916;-71
2022/03/04 04:36:53;;;;;;;;;;;6.70;99.90;;;;;;5075001;28;19912;-70
2022/03/04 04:39:18;;;;;;;;;;;6.80;99.90;;;;;;5075027;28;19908;-69
2022/03/04 04:41:44;;;;;;;;;;;6.90;99.90;;;;;;5074975;28;19985;-70
2022/03/04 04:44:10;;;;;;;;;;;6.80;99.90;;;;;;5074758;28;19908;-71
2022/03/04 04:46:35;;;;;;;;;;;6.90;99.90;;;;;;5074797;28;20272;-69
2022/03/04 04:49:01;;;;;;;;;;;7.00;99.90;;;;;;5063687;28;19908;-71
2022/03/04 04:51:27;;;;;;;;;;;7.00;99.90;;;;;;5054380;28;19908;-67
2022/03/04 04:53:53;;;;;;;;;;;6.80;99.90;;;;;;5054881;28;19921;-68
2022/03/04 04:56:19;;;;;;;;;;;6.60;99.90;;;;;;5067214;28;20315;-68
2022/03/04 04:58:45;;;;;;;;;;;6.40;99.90;;;;;;5053105;28;19908;-68
2022/03/04 05:01:11;;;;;;;;;;;6.30;99.90;;;;;;5054497;28;19909;-75
2022/03/04 05:03:36;;;;;;;;;;;6.20;99.90;;;;;;5067010;28;19908;-73
2022/03/04 05:06:02;;;;;;;;;;;5.90;99.90;;;;;;5073823;28;20276;-72
2022/03/04 05:08:29;;;;;;;;;;;5.90;99.90;;;;;;5074362;28;19908;-72
2022/03/04 05:10:58;;;;;;;;;;;6.00;99.90;;;;;;5074352;28;19909;-71
2022/03/04 05:13:24;;;;;;;;;;;6.10;99.90;;;;;;5074148;28;19922;-73
2022/03/04 05:15:50;;;;;;;;;;;6.20;99.90;;;;;;5072895;28;19915;-71
2022/03/04 05:18:15;;;;;;;;;;;6.20;99.90;;;;;;5073658;28;19909;-69
2022/03/04 05:20:41;;;;;;;;;;;6.10;99.90;;;;;;5074026;28;19909;-72
2022/03/04 05:23:07;;;;;;;;;;;;;;;;;;5072603;28;19913;-73
2022/03/04 05:25:33;;;;;;;;;;;6.20;99.90;;;;;;5073809;28;20359;-68
2022/03/04 05:27:59;;;;;;;;;;;6.20;99.90;;;;;;5073781;28;19919;-74
2022/03/04 05:30:25;;;;;;;;;;;6.20;99.90;;;;;;5073798;28;20133;-72
2022/03/04 05:32:50;;;;;;;;;;;6.20;99.90;;;;;;5073780;28;19960;-72
2022/03/04 05:35:16;;;;;;;;;;;6.20;99.90;;;;;;5073919;28;19908;-70
2022/03/04 05:37:42;;;;;;;;;;;6.20;99.90;;;;;;5072447;28;19913;-71
2022/03/04 05:40:08;;;;;;;;;;;6.00;99.90;;;;;;5073668;28;19939;-71
2022/03/04 05:42:34;;;;;;;;;;;5.90;99.90;;;;;;5072180;28;19908;-70
2022/03/04 05:44:59;;;;;;;;;;;5.90;99.90;;;;;;5073523;28;19912;-71
2022/03/04 05:47:25;;;;;;;;;;;5.80;99.90;;;;;;5073595;28;19912;-73
2022/03/04 05:49:51;;;;;;;;;;;5.90;99.90;;;;;;5072556;28;19912;-68
2022/03/04 05:52:16;;;;;;;;;;;5.70;99.90;;;;;;5073573;28;19912;-71
2022/03/04 05:54:43;;;;;;;;;;;;;;;;;;5073735;28;19944;-75
2022/03/04 05:57:08;;;;;;;;;;;5.60;99.90;;;;;;5073166;28;19954;-72
2022/03/04 05:59:34;;;;;;;;;;;5.70;99.90;;;;;;5072803;28;20283;-72
2022/03/04 06:02:00;;;;;;;;;;;5.60;99.90;;;;;;5073577;28;19908;-72
2022/03/04 06:04:25;;;;;;;;;;;5.50;99.90;;;;;;5073135;28;19913;-73
2022/03/04 06:06:51;;;;;;;;;;;5.50;99.90;;;;;;5073231;28;19946;-72
2022/03/04 06:09:16;;;;;;;;;;;5.50;99.90;;;;;;5073253;28;20007;-73
2022/03/04 06:11:44;;;;;;;;;;;5.50;99.90;;;;;;5073355;28;19913;-73
2022/03/04 06:14:10;;;;;;;;;;;5.50;99.90;;;;;;5073405;28;19920;-74
2022/03/04 06:16:35;;;;;;;;;;;5.50;99.90;;;;;;5072102;28;19912;-70
2022/03/04 06:19:01;;;;;;;;;;;5.40;99.90;;;;;;5073501;28;20363;-71
2022/03/04 06:21:27;;;;;;;;;;;5.40;99.90;;;;;;5073436;28;19908;-69
2022/03/04 06:23:52;;;;;;;;;;;5.40;99.90;;;;;;5073332;28;19912;-74
2022/03/04 06:26:20;;;;;;;;;;;5.40;99.90;;;;;;5071951;28;20425;-75
2022/03/04 06:28:46;;;;;;;;;;;5.30;99.90;;;;;;5072070;28;19927;-73
2022/03/04 06:31:11;;;;;;;;;;;5.50;99.90;;;;;;5074784;28;20462;-74
2022/03/04 06:33:38;;;;;;;;;;;5.50;99.90;;;;;;5075270;28;19967;-69
2022/03/04 06:36:05;;;;;;;;;;;5.40;99.90;;;;;;5076276;28;19912;-73
2022/03/04 06:38:32;;;;;;;;;;;5.50;99.90;;;;;;5074844;28;19908;-69
2022/03/04 06:40:58;;;;;;;;;;;5.50;99.90;;;;;;5075534;28;20382;-75
2022/03/04 06:43:24;;;;;;;;;;;5.50;99.90;;;;;;5077277;28;19909;-74
2022/03/04 06:45:49;;;;;;;;;;;5.20;99.90;;;;;;5077156;28;19951;-74
2022/03/04 06:48:17;;;;;;;;;;;5.30;99.90;;;;;;5092695;28;20256;-74
2022/03/04 06:50:43;;;;;;;;;;;5.30;99.90;;;;;;5077001;28;20418;-73
2022/03/04 06:53:09;;;;;;;;;;;5.50;99.90;;;;;;5076933;28;19923;-71
2022/03/04 06:55:34;;;;;;;;;;;5.70;99.90;;;;;;5076960;28;19912;-72
2022/03/04 06:58:00;;;;;;;;;;;;;;;;;;5075460;28;19908;-72
2022/03/04 07:00:27;;;;;;;;;;;6.30;99.90;;;;;;5076632;28;19908;-75
2022/03/04 07:02:53;;;;;;;;;;;6.50;99.90;;;;;;5076756;28;20005;-72
2022/03/04 07:05:21;;;;;;;;;;;6.50;99.90;;;;;;5076739;28;20371;-68
2022/03/04 07:07:51;;;;;;;;;;;6.80;99.90;;;;;;5076633;28;19916;-72
2022/03/04 07:10:17;;;;;;;;;;;6.90;99.90;;;;;;5075438;28;19965;-72
2022/03/04 07:12:43;;;;;;;;;;;7.00;99.90;;;;;;5075141;28;20371;-72
2022/03/04 07:15:09;;;;;;;;;;;7.30;99.90;;;;;;5075870;28;19952;-69
2022/03/04 07:17:35;;;;;;;;;;;7.40;99.90;;;;;;5060266;28;19912;-67
2022/03/04 07:20:02;;;;;;;;;;;7.60;99.90;;;;;;5070866;28;19994;-72
2022/03/04 07:22:27;;;;;;;;;;;7.80;99.90;;;;;;5072103;28;19923;-67
2022/03/04 07:24:53;;;;;;;;;;;7.80;99.90;;;;;;5068936;28;19912;-68
2022/03/04 07:27:19;;;;;;;;;;;;;;;;;;5070723;28;20285;-71
2022/03/04 07:29:45;;;;;;;;;;;8.20;99.90;;;;;;5072095;28;19912;-69
2022/03/04 07:32:10;;;;;;;;;;;8.40;99.90;;;;;;5072040;28;20271;-68
2022/03/04 07:34:36;;;;;;;;;;;8.50;99.90;;;;;;5071064;28;20017;-68
2022/03/04 07:37:02;;;;;;;;;;;8.60;99.90;;;;;;5070606;28;19908;-67
2022/03/04 07:39:27;;;;;;;;;;;8.60;99.90;;;;;;5069995;28;19916;-68
2022/03/04 07:41:53;;;;;;;;;;;8.60;99.90;;;;;;5070245;28;19908;-65
2022/03/04 07:44:19;;;;;;;;;;;8.90;99.90;;;;;;5069339;28;19966;-65
2022/03/04 07:46:45;;;;;;;;;;;8.90;99.90;;;;;;5068271;28;19916;-66
2022/03/04 07:49:11;;;;;;;;;;;9.00;99.90;;;;;;5069830;28;20047;-67
2022/03/04 07:51:37;;;;;;;;;;;9.20;99.90;;;;;;5063231;28;19908;-68
2022/03/04 07:54:03;;;;;;;;;;;9.40;99.90;;;;;;5067038;28;19921;-76
2022/03/04 07:56:28;;;;;;;;;;;9.70;99.90;;;;;;5062207;28;19916;-66
2022/03/04 07:58:54;;;;;;;;;;;9.90;99.90;;;;;;5076228;28;20360;-66
2022/03/04 08:01:20;;;;;;;;;;;9.90;99.90;;;;;;5051768;28;19913;-66
2022/03/04 08:03:46;;;;;;;;;;;10.00;99.90;;;;;;5058379;28;19913;-67
2022/03/04 08:06:12;;;;;;;;;;;9.80;99.90;;;;;;5070616;28;20003;-70
2022/03/04 08:08:38;;;;;;;;;;;10.20;99.90;;;;;;5070839;28;19908;-66
2022/03/04 08:11:04;;;;;;;;;;;10.60;99.90;;;;;;5061075;28;19908;-69
2022/03/04 08:13:29;;;;;;;;;;;10.40;99.90;;;;;;5084691;28;20621;-67
2022/03/04 08:15:55;;;;;;;;;;;10.40;99.90;;;;;;5071529;28;20345;-68
2022/03/04 08:18:21;;;;;;;;;;;10.30;99.90;;;;;;5071387;28;19919;-69
2022/03/04 08:20:47;;;;;;;;;;;10.00;99.90;;;;;;5070749;28;19947;-68
2022/03/04 08:23:12;;;;;;;;;;;9.90;99.90;;;;;;5026798;28;1249062;-67
2022/03/04 08:25:41;;;;;;;;;;;10.00;99.90;;;;;;5071734;28;20415;-68
2022/03/04 08:28:07;;;;;;;;;;;9.80;99.90;;;;;;5070547;28;19912;-68
2022/03/04 08:30:32;;;;;;;;;;;9.60;99.90;;;;;;5071679;28;19995;-68
2022/03/04 08:32:58;;;;;;;;;;;9.60;99.90;;;;;;5072237;28;19917;-67
2022/03/04 08:35:24;;;;;;;;;;;9.60;99.90;;;;;;5071501;28;20249;-68
2022/03/04 08:37:50;;;;;;;;;;;9.40;99.90;;;;;;5069286;28;19912;-70
2022/03/04 08:40:15;;;;;;;;;;;9.40;99.90;;;;;;5071053;28;19912;-66
2022/03/04 08:42:42;;;;;;;;;;;9.30;99.90;;;;;;5072042;28;19989;-67
2022/03/04 08:45:08;;;;;;;;;;;9.40;99.90;;;;;;5071103;28;19966;-69
2022/03/04 08:47:33;;;;;;;;;;;9.50;99.90;;;;;;5070789;28;19930;-67
2022/03/04 08:49:59;;;;;;;;;;;9.70;99.90;;;;;;5072213;28;20008;-68
2022/03/04 08:52:24;;;;;;;;;;;9.80;99.90;;;;;;5071817;28;20367;-70
2022/03/04 08:54:50;;;;;;;;;;;9.90;99.90;;;;;;5071253;28;19942;-67
2022/03/04 08:57:16;;;;;;;;;;;10.50;99.90;;;;;;5070316;28;19908;-71
2022/03/04 08:59:41;;;;;;;;;;;10.70;99.90;;;;;;5070686;28;19908;-71
2022/03/04 09:02:07;;;;;;;;;;;11.00;99.90;;;;;;5072944;28;19908;-67
2022/03/04 09:04:32;;;;;;;;;;;11.40;99.90;;;;;;5071450;28;19954;-69
2022/03/04 09:06:58;;;;;;;;;;;11.60;99.90;;;;;;5070309;28;19939;-70
2022/03/04 09:09:24;;;;;;;;;;;11.80;99.90;;;;;;5071712;28;19912;-69
2022/03/04 09:11:49;;;;;;;;;;;11.70;99.90;;;;;;5069805;28;19919;-70
2022/03/04 09:14:19;;;;;;;;;;;11.70;99.90;;;;;;5070299;28;19955;-68
2022/03/04 09:16:45;;;;;;;;;;;12.00;99.90;;;;;;5071000;28;20283;-67
2022/03/04 09:19:11;;;;;;;;;;;11.90;99.90;;;;;;5070810;28;19908;-70
2022/03/04 09:21:36;;;;;;;;;;;11.60;99.90;;;;;;5070428;28;20251;-67
2022/03/04 09:24:04;;;;;;;;;;;12.10;99.90;;;;;;5071087;28;19966;-68
2022/03/04 09:26:30;;;;;;;;;;;12.40;99.90;;;;;;5070907;28;19912;-67
2022/03/04 09:28:55;;;;;;;;;;;12.00;99.90;;;;;;5070846;28;20626;-68
2022/03/04 09:31:21;;;;;;;;;;;12.30;99.90;;;;;;5071143;28;19954;-68
2022/03/04 09:33:47;;;;;;;;;;;12.10;99.30;;;;;;5069441;28;19916;-72
2022/03/04 09:36:14;;;;;;;;;;;12.20;99.90;;;;;;5070682;28;19913;-73
2022/03/04 09:38:41;;;;;;;;;;;12.60;99.90;;;;;;5070788;28;19912;-69
2022/03/04 09:41:06;;;;;;;;;;;12.90;99.90;;;;;;5070439;28;20015;-67
2022/03/04 09:43:32;;;;;;;;;;;12.60;98.80;;;;;;5070448;28;20041;-70
2022/03/04 09:45:58;;;;;;;;;;;12.90;99.50;;;;;;5071075;28;19919;-72
2022/03/04 09:48:24;;;;;;;;;;;12.90;99.30;;;;;;5069990;28;19908;-67
2022/03/04 09:50:49;;;;;;;;;;;13.30;99.10;;;;;;5070691;28;20021;-66
2022/03/04 09:53:15;;;;;;;;;;;13.30;97.00;;;;;;5070582;28;19986;-68
2022/03/04 09:55:41;;;;;;;;;;;12.90;96.60;;;;;;5070756;28;20394;-73
2022/03/04 09:58:11;;;;;;;;;;;13.10;96.20;;;;;;5068665;28;19909;-69
2022/03/04 10:00:37;;;;;;;;;;;13.40;94.70;;;;;;5070697;28;19912;-67
2022/03/04 10:03:03;;;;;;;;;;;12.50;94.00;;;;;;5069048;28;19908;-70
2022/03/04 10:05:29;;;;;;;;;;;12.90;96.80;;;;;;5070830;28;20274;-68
2022/03/04 10:07:55;;;;;;;;;;;13.40;93.10;;;;;;5070304;28;20435;-68
2022/03/04 10:10:24;;;;;;;;;;;13.70;96.10;;;;;;5070250;28;20003;-67
2022/03/04 10:12:51;;;;;;;;;;;13.50;91.60;;;;;;5071561;28;20362;-68
2022/03/04 10:15:17;;;;;;;;;;;12.80;90.60;;;;;;5071703;28;19912;-69
2022/03/04 10:17:54;;;;;;;;;;;12.80;91.70;;;;;;5070513;28;19908;-71
2022/03/04 10:20:19;;;;;;;;;;;12.40;92.90;;;;;;5070336;28;20763;-69
2022/03/04 10:22:46;;;;;;;;;;;12.00;90.80;;;;;;5070345;28;19916;-67
2022/03/04 10:25:16;;;;;;;;;;;12.40;92.30;;;;;;5070326;28;20283;-70
2022/03/04 10:27:42;;;;;;;;;;;12.40;92.00;;;;;;5070149;28;19915;-71
2022/03/04 10:30:08;;;;;;;;;;;12.40;91.60;;;;;;5069299;28;19912;-66
2022/03/04 10:32:33;;;;;;;;;;;12.60;92.30;;;;;;5070512;28;19927;-69
2022/03/04 10:35:00;;;;;;;;;;;12.20;91.90;;;;;;5070627;28;20271;-69
2022/03/04 10:37:39;;;;;;;;;;;12.60;92.60;;;;;;5070523;28;19916;-70
2022/03/04 10:40:04;;;;;;;;;;;12.50;92.70;;;;;;5070199;28;19908;-68
2022/03/04 10:42:41;;;;;;;;;;;12.20;93.50;;;;;;5070020;28;19915;-70
2022/03/04 10:45:07;;;;;;;;;;;12.00;93.90;;;;;;5069635;28;19944;-69
2022/03/04 10:47:44;;;;;;;;;;;12.10;94.30;;;;;;5069452;28;19911;-68
2022/03/04 10:50:10;;;;;;;;;;;12.00;94.20;;;;;;5070016;28;19908;-68
2022/03/04 10:52:53;;;;;;;;;;;11.90;94.30;;;;;;5070443;28;19912;-68
2022/03/04 10:55:29;;;;;;;;;;;12.10;94.50;;;;;;5070158;28;19908;-68
2022/03/04 10:57:55;;;;;;;;;;;11.90;94.90;;;;;;5069051;28;19938;-72
2022/03/04 11:00:28;;;;;;;;;;;12.00;94.50;;;;;;5070228;28;19971;-68
2022/03/04 11:02:54;;;;;;;;;;;12.60;95.30;;;;;;5068946;28;20302;-73
2022/03/04 11:05:20;;;;;;;;;;;12.20;94.30;;;;;;5069804;28;19961;-70
2022/03/04 11:07:46;;;;;;;;;;;12.20;94.40;;;;;;5069139;28;20006;-68
2022/03/04 11:10:12;;;;;;;;;;;12.20;94.00;;;;;;5070125;28;19947;-68
2022/03/04 11:12:40;;;;;;;;;;;12.10;93.90;;;;;;5070137;28;20401;-77
2022/03/04 11:15:06;;;;;;;;;;;11.80;94.20;;;;;;5070622;28;19990;-67
2022/03/04 11:17:32;;;;;;;;;;;12.20;94.10;;;;;;5071589;28;19974;-72
2022/03/04 11:19:57;;;;;;;;;;;12.10;93.60;;;;;;5074081;28;19915;-67
2022/03/04 11:22:23;;;;;;;;;;;12.10;93.80;;;;;;5074216;28;20344;-74
2022/03/04 11:24:51;;;;;;;;;;;12.60;94.00;;;;;;5073961;28;19908;-77
2022/03/04 11:27:19;;;;;;;;;;;12.40;93.30;;;;;;5072772;28;19915;-74
2022/03/04 11:29:45;;;;;;;;;;;12.30;93.90;;;;;;5073426;28;19915;-76
2022/03/04 11:32:11;;;;;;;;;;;12.10;93.80;;;;;;5072298;28;19922;-73
2022/03/04 11:34:41;;;;;;;;;;;12.40;93.50;;;;;;5072450;28;19995;-73
2022/03/04 11:37:14;;;;;;;;;;;12.40;92.20;;;;;;5072649;28;19955;-68
2022/03/04 11:43:17;;;;;;;;;;;12.60;91.30;;;;;;5042723;28;20376;-70
2022/03/04 11:45:42;;;;;;;;;;;13.00;90.60;;;;;;5050243;28;19909;-71
2022/03/04 11:48:10;;;;;;;;;;;12.70;90.40;;;;;;5066505;28;20286;-73
2022/03/04 11:50:37;;;;;;;;;;;12.70;89.90;;;;;;5074991;28;19948;-68
2022/03/04 11:53:19;;;;;;;;;;;12.40;90.20;;;;;;5068597;28;19916;-68
2022/03/04 11:56:03;;;;;;;;;;;12.50;88.90;;;;;;5062102;28;20386;-69
2022/03/04 11:58:28;;;;;;;;;;;12.70;89.60;;;;;;5066401;28;19909;-71
2022/03/04 12:01:14;;;;;;;;;;;12.70;90.40;;;;;;5067817;28;20375;-68
2022/03/04 12:03:59;;;;;;;;;;;13.00;88.80;;;;;;5056109;28;19913;-68
2022/03/04 12:06:25;;;;;;;;;;;12.60;89.60;;;;;;5053747;28;19920;-66
2022/03/04 12:08:51;;;;;;;;;;;12.80;90.00;;;;;;5058198;28;19912;-72
2022/03/04 12:11:23;;;;;;;;;;;12.80;88.50;;;;;;5054672;28;20338;-68
2022/03/04 12:14:20;;;;;;;;;;;12.70;88.70;;;;;;5061140;28;19916;-70
2022/03/04 12:16:47;;;;;;;;;;;12.60;88.60;;;;;;5072571;28;20014;-68
2022/03/04 12:19:28;;;;;;;;;;;12.80;89.20;;;;;;5071347;28;19912;-66
2022/03/04 12:21:56;;;;;;;;;;;12.50;87.50;;;;;;5071536;28;19909;-71
2022/03/04 12:24:31;;;;;;;;;;;12.40;89.00;;;;;;5072970;28;19942;-65
2022/03/04 12:26:57;;;;;;;;;;;12.30;89.00;;;;;;5071264;28;19908;-66
2022/03/04 12:29:40;;;;;;;;;;;12.20;88.90;;;;;;5071879;28;20129;-66
2022/03/04 12:32:06;;;;;;;;;;;12.20;88.60;;;;;;5072038;28;20314;-72
2022/03/04 12:34:32;;;;;;;;;;;12.60;88.80;;;;;;5071354;28;19919;-65
2022/03/04 12:37:00;;;;;;;;;;;12.70;89.00;;;;;;5072665;28;19916;-68
2022/03/04 12:39:26;;;;;;;;;;;12.80;89.50;;;;;;5071149;28;20375;-66
2022/03/04 12:41:56;;;;;;;;;;;12.30;87.10;;;;;;5072258;28;19913;-67
2022/03/04 12:44:21;;;;;;;;;;;12.60;89.00;;;;;;5070333;28;19909;-69
2022/03/04 12:46:50;;;;;;;;;;;12.60;87.20;;;;;;5071573;28;19912;-66
2022/03/04 12:49:19;;;;;;;;;;;12.20;88.00;;;;;;5072745;28;19920;-67
2022/03/04 12:51:45;;;;;;;;;;;12.20;87.70;;;;;;5073816;28;19909;-67
2022/03/04 12:54:18;;;;;;;;;;;12.40;86.90;;;;;;5072277;28;19917;-66
2022/03/04 12:56:50;;;;;;;;;;;12.40;87.50;;;;;;5072722;28;19919;-67
2022/03/04 12:59:41;;;;;;;;;;;12.80;88.50;;;;;;5072423;28;19909;-67
2022/03/04 13:02:08;;;;;;;;;;;12.60;87.00;;;;;;5074316;28;19998;-72
2022/03/04 13:04:34;;;;;;;;;;;12.70;86.60;;;;;;5074094;28;19918;-67
2022/03/04 13:07:00;;;;;;;;;;;12.40;87.10;;;;;;5072116;28;19908;-67
2022/03/04 13:09:48;;;;;;;;;;;12.40;87.70;;;;;;5072594;28;19908;-68
2022/03/04 13:12:13;;;;;;;;;;;12.80;82.60;;;;;;5073478;28;19908;-73
2022/03/04 13:14:39;;;;;;;;;;;12.90;82.80;;;;;;5073878;28;20268;-68
2022/03/04 13:17:11;;;;;;;;;;;12.70;80.60;;;;;;5072109;28;20445;-69
2022/03/04 13:19:37;;;;;;;;;;;12.80;81.90;;;;;;5071960;28;19908;-71
2022/03/04 13:22:08;;;;;;;;;;;12.60;80.70;;;;;;5071759;28;20003;-69
2022/03/04 13:24:39;;;;;;;;;;;12.90;81.70;;;;;;5072238;28;19913;-74
2022/03/04 13:27:05;;;;;;;;;;;12.90;81.20;;;;;;5071533;28;20003;-68
2022/03/04 13:29:32;;;;;;;;;;;12.60;80.90;;;;;;5071592;28;19991;-70
2022/03/04 13:32:13;;;;;;;;;;;12.60;82.70;;;;;;5072250;28;19915;-68
2022/03/04 13:34:41;;;;;;;;;;;12.80;82.80;;;;;;5071586;28;19919;-72
2022/03/04 13:37:08;;;;;;;;;;;13.00;83.70;;;;;;5071764;28;20010;-67
2022/03/04 13:39:35;;;;;;;;;;;13.00;82.90;;;;;;5072829;28;19948;-72
2022/03/04 13:42:15;;;;;;;;;;;12.50;82.70;;;;;;5071770;28;19912;-67
2022/03/04 13:44:50;;;;;;;;;;;12.20;84.00;;;;;;5071499;28;19913;-70
2022/03/04 13:47:26;;;;;;;;;;;12.20;84.80;;;;;;5073856;28;19961;-72
2022/03/04 13:49:52;;;;;;;;;;;11.90;85.90;;;;;;5072149;28;19908;-71
2022/03/04 13:52:18;;;;;;;;;;;11.90;87.00;;;;;;5073681;28;19973;-70
2022/03/04 13:54:51;;;;;;;;;;;11.70;87.20;;;;;;5073809;28;19912;-71
2022/03/04 13:57:36;;;;;;;;;;;11.60;87.00;;;;;;5074031;28;19943;-71
2022/03/04 14:00:09;;;;;;;;;;;11.60;87.10;;;;;;5073664;28;20375;-70
2022/03/04 14:02:48;;;;;;;;;;;11.50;88.30;;;;;;5073455;28;19912;-72
2022/03/04 14:05:34;;;;;;;;;;;11.50;87.90;;;;;;5073589;28;19947;-71
2022/03/04 14:08:19;;;;;;;;;;;11.50;89.20;;;;;;5071931;28;19938;-72
2022/03/04 14:10:46;;;;;;;;;;;11.90;88.20;;;;;;5073651;28;20309;-70
2022/03/04 14:13:13;;;;;;;;;;;12.10;88.30;;;;;;5070878;28;19923;-68
2022/03/04 14:15:40;;;;;;;;;;;12.30;90.70;;;;;;5060832;28;19908;-68
2022/03/04 14:18:07;;;;;;;;;;;12.80;88.30;;;;;;5052146;28;19909;-71
2022/03/04 14:20:34;;;;;;;;;;;12.70;86.90;;;;;;5053293;28;20284;-67
2022/03/04 14:23:00;;;;;;;;;;;12.20;87.10;;;;;;5051824;28;19913;-66
2022/03/04 14:25:25;;;;;;;;;;;11.80;87.10;;;;;;5051699;28;20360;-65
2022/03/04 14:27:54;;;;;;;;;;;11.50;86.40;;;;;;5050978;28;19966;-66
2022/03/04 14:30:24;;;;;;;;;;;11.50;86.60;;;;;;5051202;28;19994;-66